sensor_id;sensor_type;location;lat;lon;timestamp;pressure;altitude;pressure_sealevel;temperature;humidity
72961;BME280;61141;46.204;19.774;2023-05-09T00:00:30;101102.47;;;8.05;74.78
72961;BME280;61141;46.204;19.774;2023-05-09T00:03:33;101097.06;;;7.96;74.13
72961;BME280;61141;46.204;19.774;2023-05-09T00:06:36;101094.69;;;7.95;74.37
72961;BME280;61141;46.204;19.774;2023-05-09T00:09:39;101097.06;;;7.96;75.22
72961;BME280;61141;46.204;19.774;2023-05-09T00:12:41;101086.56;;;7.86;74.55
72961;BME280;61141;46.204;19.774;2023-05-09T00:15:45;101074.59;;;7.99;76.57
72961;BME280;61141;46.204;19.774;2023-05-09T00:18:48;101092.94;;;7.69;75.24
72961;BME280;61141;46.204;19.774;2023-05-09T00:21:51;101087.50;;;8.11;74.69
72961;BME280;61141;46.204;19.774;2023-05-09T00:24:53;101094.31;;;7.84;75.33
72961;BME280;61141;46.204;19.774;2023-05-09T00:27:57;101094.63;;;8.03;75.41
72961;BME280;61141;46.204;19.774;2023-05-09T00:31:00;101094.47;;;7.79;74.67
72961;BME280;61141;46.204;19.774;2023-05-09T00:34:03;101099.31;;;7.74;75.35
72961;BME280;61141;46.204;19.774;2023-05-09T00:37:05;101088.66;;;7.60;75.66
72961;BME280;61141;46.204;19.774;2023-05-09T00:40:09;101098.72;;;7.47;77.46
72961;BME280;61141;46.204;19.774;2023-05-09T00:43:12;101089.97;;;7.54;78.03
72961;BME280;61141;46.204;19.774;2023-05-09T00:46:15;101088.88;;;7.55;76.10
72961;BME280;61141;46.204;19.774;2023-05-09T00:49:18;101076.03;;;7.55;76.21
72961;BME280;61141;46.204;19.774;2023-05-09T00:52:23;101079.25;;;7.28;76.89
72961;BME280;61141;46.204;19.774;2023-05-09T00:55:27;101087.81;;;7.68;77.45
72961;BME280;61141;46.204;19.774;2023-05-09T00:58:30;101091.53;;;7.63;76.56
72961;BME280;61141;46.204;19.774;2023-05-09T01:01:33;101087.34;;;7.45;77.86
72961;BME280;61141;46.204;19.774;2023-05-09T01:04:36;101087.22;;;7.33;77.05
72961;BME280;61141;46.204;19.774;2023-05-09T01:18:26;101068.94;;;7.04;78.19
72961;BME280;61141;46.204;19.774;2023-05-09T01:21:31;101067.47;;;7.07;78.66
72961;BME280;61141;46.204;19.774;2023-05-09T01:28:12;101062.66;;;7.12;79.31
72961;BME280;61141;46.204;19.774;2023-05-09T01:31:16;101062.34;;;7.14;79.13
72961;BME280;61141;46.204;19.774;2023-05-09T01:34:20;101058.53;;;7.06;80.12
72961;BME280;61141;46.204;19.774;2023-05-09T01:37:33;101054.53;;;7.04;79.05
72961;BME280;61141;46.204;19.774;2023-05-09T01:40:38;101061.91;;;7.03;79.33
72961;BME280;61141;46.204;19.774;2023-05-09T01:43:44;101048.09;;;6.79;80.06
72961;BME280;61141;46.204;19.774;2023-05-09T01:46:48;101031.94;;;7.03;80.12
72961;BME280;61141;46.204;19.774;2023-05-09T01:49:52;101051.09;;;7.16;79.40
72961;BME280;61141;46.204;19.774;2023-05-09T01:52:58;101042.88;;;7.24;79.61
72961;BME280;61141;46.204;19.774;2023-05-09T01:56:03;101049.53;;;7.35;79.26
72961;BME280;61141;46.204;19.774;2023-05-09T01:59:06;101054.53;;;7.04;79.42
72961;BME280;61141;46.204;19.774;2023-05-09T02:02:10;101051.09;;;7.16;78.92
72961;BME280;61141;46.204;19.774;2023-05-09T02:05:14;101052.50;;;7.51;79.17
72961;BME280;61141;46.204;19.774;2023-05-09T02:08:20;101062.47;;;7.47;78.59
72961;BME280;61141;46.204;19.774;2023-05-09T02:11:23;101063.44;;;7.13;79.71
72961;BME280;61141;46.204;19.774;2023-05-09T02:14:26;101059.22;;;7.24;79.11
72961;BME280;61141;46.204;19.774;2023-05-09T02:17:29;101057.47;;;7.28;79.96
72961;BME280;61141;46.204;19.774;2023-05-09T02:20:32;101059.63;;;6.76;80.42
72961;BME280;61141;46.204;19.774;2023-05-09T02:23:37;101055.88;;;6.89;80.67
72961;BME280;61141;46.204;19.774;2023-05-09T02:26:40;101053.91;;;6.61;81.13
72961;BME280;61141;46.204;19.774;2023-05-09T02:29:47;101052.84;;;6.36;81.94
72961;BME280;61141;46.204;19.774;2023-05-09T02:32:55;101047.72;;;6.43;81.89
72961;BME280;61141;46.204;19.774;2023-05-09T02:35:58;101045.62;;;6.48;82.15
72961;BME280;61141;46.204;19.774;2023-05-09T02:39:01;101038.09;;;6.54;82.49
72961;BME280;61141;46.204;19.774;2023-05-09T02:42:09;101038.41;;;6.44;82.10
72961;BME280;61141;46.204;19.774;2023-05-09T02:45:12;101037.69;;;6.73;81.68
72961;BME280;61141;46.204;19.774;2023-05-09T02:48:15;101035.22;;;6.50;82.00
72961;BME280;61141;46.204;19.774;2023-05-09T02:51:18;101036.50;;;6.44;82.62
72961;BME280;61141;46.204;19.774;2023-05-09T02:54:21;101037.84;;;6.21;83.46
72961;BME280;61141;46.204;19.774;2023-05-09T02:57:24;101042.72;;;6.54;82.62
72961;BME280;61141;46.204;19.774;2023-05-09T03:00:27;101043.09;;;6.35;83.51
72961;BME280;61141;46.204;19.774;2023-05-09T03:03:30;101035.44;;;6.11;83.92
72961;BME280;61141;46.204;19.774;2023-05-09T03:06:35;101046.13;;;6.33;84.56
72961;BME280;61141;46.204;19.774;2023-05-09T03:09:39;101041.84;;;6.15;84.48
72961;BME280;61141;46.204;19.774;2023-05-09T03:12:42;101035.28;;;6.16;83.86
72961;BME280;61141;46.204;19.774;2023-05-09T03:15:46;101049.84;;;6.20;84.88
72961;BME280;61141;46.204;19.774;2023-05-09T03:18:49;101048.06;;;6.24;83.92
72961;BME280;61141;46.204;19.774;2023-05-09T03:21:52;101050.66;;;6.21;84.22
72961;BME280;61141;46.204;19.774;2023-05-09T03:24:55;101052.41;;;6.00;84.54
72961;BME280;61141;46.204;19.774;2023-05-09T03:27:58;101061.81;;;6.36;84.71
72961;BME280;61141;46.204;19.774;2023-05-09T03:31:00;101053.19;;;6.17;84.40
72961;BME280;61141;46.204;19.774;2023-05-09T03:34:04;101059.91;;;6.37;84.85
72961;BME280;61141;46.204;19.774;2023-05-09T03:37:06;101061.44;;;6.55;84.86
72961;BME280;61141;46.204;19.774;2023-05-09T03:40:12;101055.28;;;6.75;83.42
72961;BME280;61141;46.204;19.774;2023-05-09T03:43:15;101060.69;;;6.92;83.15
72961;BME280;61141;46.204;19.774;2023-05-09T03:46:18;101064.03;;;6.52;82.17
72961;BME280;61141;46.204;19.774;2023-05-09T03:49:21;101065.00;;;6.38;83.36
72961;BME280;61141;46.204;19.774;2023-05-09T03:52:25;101067.41;;;6.40;83.45
72961;BME280;61141;46.204;19.774;2023-05-09T03:55:29;101074.66;;;6.10;84.27
72961;BME280;61141;46.204;19.774;2023-05-09T03:58:32;101067.78;;;6.04;84.71
72961;BME280;61141;46.204;19.774;2023-05-09T04:01:35;101067.72;;;6.38;84.04
72961;BME280;61141;46.204;19.774;2023-05-09T04:04:42;101071.66;;;6.67;83.28
72961;BME280;61141;46.204;19.774;2023-05-09T04:07:45;101068.03;;;6.54;83.96
72961;BME280;61141;46.204;19.774;2023-05-09T04:10:49;101075.50;;;6.66;82.72
72961;BME280;61141;46.204;19.774;2023-05-09T04:13:53;101066.41;;;6.53;83.50
72961;BME280;61141;46.204;19.774;2023-05-09T04:16:57;101063.44;;;6.84;83.71
72961;BME280;61141;46.204;19.774;2023-05-09T04:19:59;101074.78;;;6.86;82.02
72961;BME280;61141;46.204;19.774;2023-05-09T04:23:03;101088.34;;;7.03;81.82
72961;BME280;61141;46.204;19.774;2023-05-09T04:26:06;101076.69;;;6.94;81.86
72961;BME280;61141;46.204;19.774;2023-05-09T04:29:11;101070.41;;;6.56;82.74
72961;BME280;61141;46.204;19.774;2023-05-09T04:32:14;101075.75;;;6.90;81.88
72961;BME280;61141;46.204;19.774;2023-05-09T04:35:18;101087.78;;;7.18;81.12
72961;BME280;61141;46.204;19.774;2023-05-09T04:38:22;101084.94;;;7.44;80.23
72961;BME280;61141;46.204;19.774;2023-05-09T04:41:25;101093.41;;;7.51;79.50
72961;BME280;61141;46.204;19.774;2023-05-09T04:44:29;101090.69;;;7.51;80.17
72961;BME280;61141;46.204;19.774;2023-05-09T04:47:33;101094.06;;;7.68;79.78
72961;BME280;61141;46.204;19.774;2023-05-09T04:50:36;101075.38;;;8.00;79.08
72961;BME280;61141;46.204;19.774;2023-05-09T04:53:39;101082.44;;;8.01;78.29
72961;BME280;61141;46.204;19.774;2023-05-09T04:56:42;101075.09;;;8.13;77.08
72961;BME280;61141;46.204;19.774;2023-05-09T04:59:45;101084.97;;;7.64;78.67
72961;BME280;61141;46.204;19.774;2023-05-09T05:02:48;101077.72;;;8.31;77.43
72961;BME280;61141;46.204;19.774;2023-05-09T05:05:51;101079.41;;;8.68;76.75
72961;BME280;61141;46.204;19.774;2023-05-09T05:08:54;101072.94;;;8.40;77.20
72961;BME280;61141;46.204;19.774;2023-05-09T05:11:57;101069.28;;;8.68;76.46
72961;BME280;61141;46.204;19.774;2023-05-09T05:15:05;101068.72;;;8.87;74.83
72961;BME280;61141;46.204;19.774;2023-05-09T05:18:08;101081.31;;;8.67;74.81
72961;BME280;61141;46.204;19.774;2023-05-09T05:21:11;101082.97;;;8.80;75.61
72961;BME280;61141;46.204;19.774;2023-05-09T05:24:15;101071.78;;;8.73;75.09
72961;BME280;61141;46.204;19.774;2023-05-09T05:27:18;101076.91;;;8.63;75.26
72961;BME280;61141;46.204;19.774;2023-05-09T05:30:21;101069.78;;;8.95;74.59
72961;BME280;61141;46.204;19.774;2023-05-09T05:33:24;101068.41;;;9.49;73.40
72961;BME280;61141;46.204;19.774;2023-05-09T05:36:27;101074.78;;;9.41;73.46
72961;BME280;61141;46.204;19.774;2023-05-09T05:39:31;101071.50;;;9.35;73.00
72961;BME280;61141;46.204;19.774;2023-05-09T05:42:34;101069.34;;;9.81;71.41
72961;BME280;61141;46.204;19.774;2023-05-09T05:45:36;101076.06;;;9.83;71.97
72961;BME280;61141;46.204;19.774;2023-05-09T05:48:40;101076.72;;;10.04;71.54
72961;BME280;61141;46.204;19.774;2023-05-09T05:51:43;101077.69;;;9.72;71.58
72961;BME280;61141;46.204;19.774;2023-05-09T05:54:46;101081.16;;;9.69;71.24
72961;BME280;61141;46.204;19.774;2023-05-09T05:57:50;101070.87;;;10.18;71.01
72961;BME280;61141;46.204;19.774;2023-05-09T06:00:54;101068.34;;;9.85;71.39
72961;BME280;61141;46.204;19.774;2023-05-09T06:03:57;101060.00;;;9.82;71.34
72961;BME280;61141;46.204;19.774;2023-05-09T06:07:00;101058.81;;;10.35;69.88
72961;BME280;61141;46.204;19.774;2023-05-09T06:10:04;101047.16;;;10.38;69.31
72961;BME280;61141;46.204;19.774;2023-05-09T06:13:07;101063.78;;;10.45;69.27
72961;BME280;61141;46.204;19.774;2023-05-09T06:16:11;101057.66;;;10.79;68.07
72961;BME280;61141;46.204;19.774;2023-05-09T06:19:22;101051.97;;;11.03;67.59
72961;BME280;61141;46.204;19.774;2023-05-09T06:22:25;101057.72;;;10.83;68.12
72961;BME280;61141;46.204;19.774;2023-05-09T06:25:27;101063.28;;;10.86;68.15
72961;BME280;61141;46.204;19.774;2023-05-09T06:28:30;101048.97;;;11.08;68.44
72961;BME280;61141;46.204;19.774;2023-05-09T06:31:33;101048.69;;;11.29;67.18
72961;BME280;61141;46.204;19.774;2023-05-09T06:34:40;101030.37;;;11.02;67.44
72961;BME280;61141;46.204;19.774;2023-05-09T06:37:43;101050.09;;;11.73;66.86
72961;BME280;61141;46.204;19.774;2023-05-09T06:40:49;101046.22;;;11.59;66.26
72961;BME280;61141;46.204;19.774;2023-05-09T06:43:52;101025.31;;;11.70;65.93
72961;BME280;61141;46.204;19.774;2023-05-09T06:46:55;101043.44;;;11.74;65.82
72961;BME280;61141;46.204;19.774;2023-05-09T06:49:58;101044.63;;;11.58;66.30
72961;BME280;61141;46.204;19.774;2023-05-09T06:53:01;101050.63;;;11.98;65.96
72961;BME280;61141;46.204;19.774;2023-05-09T06:56:04;101050.84;;;11.90;65.16
72961;BME280;61141;46.204;19.774;2023-05-09T06:59:07;101036.53;;;11.81;65.53
72961;BME280;61141;46.204;19.774;2023-05-09T07:02:10;101041.47;;;12.32;65.25
72961;BME280;61141;46.204;19.774;2023-05-09T07:05:13;101059.41;;;11.88;65.25
72961;BME280;61141;46.204;19.774;2023-05-09T07:08:17;101055.81;;;12.03;65.24
72961;BME280;61141;46.204;19.774;2023-05-09T07:11:20;101047.88;;;11.98;64.74
72961;BME280;61141;46.204;19.774;2023-05-09T07:14:23;101042.53;;;12.05;65.05
72961;BME280;61141;46.204;19.774;2023-05-09T07:17:26;101041.50;;;11.94;65.41
72961;BME280;61141;46.204;19.774;2023-05-09T07:20:31;101036.72;;;12.10;64.96
72961;BME280;61141;46.204;19.774;2023-05-09T07:23:34;101033.16;;;12.71;63.15
72961;BME280;61141;46.204;19.774;2023-05-09T07:26:36;101041.91;;;12.34;63.75
72961;BME280;61141;46.204;19.774;2023-05-09T07:29:39;101042.84;;;12.65;63.82
72961;BME280;61141;46.204;19.774;2023-05-09T07:32:42;101038.94;;;12.66;63.86
72961;BME280;61141;46.204;19.774;2023-05-09T07:35:45;101040.91;;;12.65;63.14
72961;BME280;61141;46.204;19.774;2023-05-09T07:38:48;101042.34;;;12.36;63.71
72961;BME280;61141;46.204;19.774;2023-05-09T07:41:53;101033.31;;;13.04;62.46
72961;BME280;61141;46.204;19.774;2023-05-09T07:44:56;101027.88;;;13.30;61.97
72961;BME280;61141;46.204;19.774;2023-05-09T07:48:00;101026.56;;;13.50;61.73
72961;BME280;61141;46.204;19.774;2023-05-09T07:51:03;101038.16;;;13.37;60.74
72961;BME280;61141;46.204;19.774;2023-05-09T07:54:07;101029.28;;;13.47;61.43
72961;BME280;61141;46.204;19.774;2023-05-09T07:57:11;101033.06;;;13.65;60.87
72961;BME280;61141;46.204;19.774;2023-05-09T08:00:14;101035.75;;;13.58;61.00
72961;BME280;61141;46.204;19.774;2023-05-09T08:03:19;101031.22;;;14.39;59.64
72961;BME280;61141;46.204;19.774;2023-05-09T08:06:22;101036.87;;;14.53;58.79
72961;BME280;61141;46.204;19.774;2023-05-09T08:09:25;101027.69;;;14.39;59.44
72961;BME280;61141;46.204;19.774;2023-05-09T08:12:28;101035.81;;;14.28;59.16
72961;BME280;61141;46.204;19.774;2023-05-09T08:15:31;101024.16;;;14.05;59.79
72961;BME280;61141;46.204;19.774;2023-05-09T08:18:33;101030.19;;;14.18;59.82
72961;BME280;61141;46.204;19.774;2023-05-09T08:21:36;101013.34;;;13.93;59.62
72961;BME280;61141;46.204;19.774;2023-05-09T08:24:39;101014.34;;;14.44;58.78
72961;BME280;61141;46.204;19.774;2023-05-09T08:27:42;101014.56;;;14.65;57.96
72961;BME280;61141;46.204;19.774;2023-05-09T08:30:45;101022.78;;;14.25;59.34
72961;BME280;61141;46.204;19.774;2023-05-09T08:33:48;101016.53;;;14.65;58.38
72961;BME280;61141;46.204;19.774;2023-05-09T08:36:50;101009.41;;;14.60;58.53
72961;BME280;61141;46.204;19.774;2023-05-09T08:39:53;101015.03;;;14.75;57.76
72961;BME280;61141;46.204;19.774;2023-05-09T08:42:56;101009.41;;;14.64;57.63
72961;BME280;61141;46.204;19.774;2023-05-09T08:46:06;100998.59;;;14.85;57.10
72961;BME280;61141;46.204;19.774;2023-05-09T08:49:10;101004.06;;;14.82;57.09
72961;BME280;61141;46.204;19.774;2023-05-09T08:52:13;101007.97;;;14.81;57.14
72961;BME280;61141;46.204;19.774;2023-05-09T08:55:17;101002.31;;;15.10;56.93
72961;BME280;61141;46.204;19.774;2023-05-09T08:58:21;100997.66;;;15.21;56.63
72961;BME280;61141;46.204;19.774;2023-05-09T09:01:24;100988.50;;;15.07;56.76
72961;BME280;61141;46.204;19.774;2023-05-09T09:04:28;101002.91;;;15.41;56.31
72961;BME280;61141;46.204;19.774;2023-05-09T09:07:33;101000.28;;;15.62;56.00
72961;BME280;61141;46.204;19.774;2023-05-09T09:10:40;101002.41;;;16.00;55.21
72961;BME280;61141;46.204;19.774;2023-05-09T09:13:51;101007.53;;;15.95;54.65
72961;BME280;61141;46.204;19.774;2023-05-09T09:16:56;101002.22;;;15.58;55.30
72961;BME280;61141;46.204;19.774;2023-05-09T09:20:02;101003.81;;;15.01;57.60
72961;BME280;61141;46.204;19.774;2023-05-09T09:23:08;101006.81;;;15.36;57.02
72961;BME280;61141;46.204;19.774;2023-05-09T09:26:15;101002.44;;;16.11;55.29
72961;BME280;61141;46.204;19.774;2023-05-09T09:29:18;100980.78;;;16.52;54.73
72961;BME280;61141;46.204;19.774;2023-05-09T09:32:31;100969.34;;;16.42;55.19
72961;BME280;61141;46.204;19.774;2023-05-09T09:35:37;100985.47;;;17.57;53.01
72961;BME280;61141;46.204;19.774;2023-05-09T09:38:42;100976.69;;;17.83;51.61
72961;BME280;61141;46.204;19.774;2023-05-09T09:41:45;100978.34;;;17.49;52.32
72961;BME280;61141;46.204;19.774;2023-05-09T09:45:09;100978.47;;;17.07;53.53
72961;BME280;61141;46.204;19.774;2023-05-09T09:48:12;100981.19;;;17.28;53.12
72961;BME280;61141;46.204;19.774;2023-05-09T09:51:15;100987.13;;;17.37;53.12
72961;BME280;61141;46.204;19.774;2023-05-09T09:54:20;100984.69;;;17.64;52.22
72961;BME280;61141;46.204;19.774;2023-05-09T09:57:36;100984.41;;;17.12;54.62
72961;BME280;61141;46.204;19.774;2023-05-09T10:00:40;100982.78;;;17.04;55.63
72961;BME280;61141;46.204;19.774;2023-05-09T10:03:44;100984.81;;;16.86;55.68
72961;BME280;61141;46.204;19.774;2023-05-09T10:06:55;100981.25;;;16.85;55.70
72961;BME280;61141;46.204;19.774;2023-05-09T10:09:58;100973.28;;;16.52;57.07
72961;BME280;61141;46.204;19.774;2023-05-09T10:13:06;100975.72;;;16.92;56.37
72961;BME280;61141;46.204;19.774;2023-05-09T10:16:11;100973.22;;;17.47;54.74
72961;BME280;61141;46.204;19.774;2023-05-09T10:19:17;100987.50;;;18.33;53.20
72961;BME280;61141;46.204;19.774;2023-05-09T10:22:22;100977.72;;;19.58;49.56
72961;BME280;61141;46.204;19.774;2023-05-09T10:25:47;100976.97;;;19.84;49.36
72961;BME280;61141;46.204;19.774;2023-05-09T10:28:54;100972.59;;;19.53;48.44
72961;BME280;61141;46.204;19.774;2023-05-09T10:31:59;100968.91;;;19.63;49.60
72961;BME280;61141;46.204;19.774;2023-05-09T10:35:05;100978.69;;;20.05;47.44
72961;BME280;61141;46.204;19.774;2023-05-09T10:38:09;100973.91;;;19.75;47.04
72961;BME280;61141;46.204;19.774;2023-05-09T10:41:16;100964.91;;;19.64;47.01
72961;BME280;61141;46.204;19.774;2023-05-09T10:44:22;100970.75;;;20.33;45.61
72961;BME280;61141;46.204;19.774;2023-05-09T10:47:26;100963.25;;;21.03;44.04
72961;BME280;61141;46.204;19.774;2023-05-09T10:50:30;100963.91;;;21.34;43.13
72961;BME280;61141;46.204;19.774;2023-05-09T10:53:47;100959.66;;;21.03;43.85
72961;BME280;61141;46.204;19.774;2023-05-09T10:56:51;100965.81;;;20.44;45.51
72961;BME280;61141;46.204;19.774;2023-05-09T10:59:54;100946.84;;;19.49;47.63
72961;BME280;61141;46.204;19.774;2023-05-09T11:03:07;100953.13;;;19.53;46.70
72961;BME280;61141;46.204;19.774;2023-05-09T11:09:52;100948.38;;;19.83;45.84
72961;BME280;61141;46.204;19.774;2023-05-09T11:13:08;100946.09;;;20.05;44.60
72961;BME280;61141;46.204;19.774;2023-05-09T11:16:11;100944.06;;;20.09;47.16
72961;BME280;61141;46.204;19.774;2023-05-09T11:19:35;100948.94;;;20.55;45.38
72961;BME280;61141;46.204;19.774;2023-05-09T11:22:40;100935.88;;;19.31;47.44
72961;BME280;61141;46.204;19.774;2023-05-09T11:25:47;100931.75;;;19.50;47.82
72961;BME280;61141;46.204;19.774;2023-05-09T11:28:52;100927.59;;;20.48;44.40
72961;BME280;61141;46.204;19.774;2023-05-09T11:32:05;100931.00;;;19.76;47.16
72961;BME280;61141;46.204;19.774;2023-05-09T11:35:14;100934.59;;;20.03;44.63
72961;BME280;61141;46.204;19.774;2023-05-09T11:38:20;100918.94;;;20.43;45.38
72961;BME280;61141;46.204;19.774;2023-05-09T11:41:23;100915.63;;;19.34;48.09
72961;BME280;61141;46.204;19.774;2023-05-09T11:44:27;100914.78;;;19.37;47.28
72961;BME280;61141;46.204;19.774;2023-05-09T11:47:32;100905.16;;;19.79;46.31
72961;BME280;61141;46.204;19.774;2023-05-09T11:50:37;100907.47;;;19.54;46.33
72961;BME280;61141;46.204;19.774;2023-05-09T11:53:43;100897.50;;;19.86;45.75
72961;BME280;61141;46.204;19.774;2023-05-09T11:56:48;100909.88;;;20.09;45.42
72961;BME280;61141;46.204;19.774;2023-05-09T11:59:51;100907.25;;;20.75;44.11
72961;BME280;61141;46.204;19.774;2023-05-09T12:02:54;100895.00;;;19.31;47.14
72961;BME280;61141;46.204;19.774;2023-05-09T12:05:58;100895.44;;;19.30;47.35
72961;BME280;61141;46.204;19.774;2023-05-09T12:09:00;100902.09;;;19.40;46.97
72961;BME280;61141;46.204;19.774;2023-05-09T12:12:10;100895.72;;;19.39;46.99
72961;BME280;61141;46.204;19.774;2023-05-09T12:15:14;100893.03;;;19.66;46.12
72961;BME280;61141;46.204;19.774;2023-05-09T12:18:17;100875.34;;;20.33;45.26
72961;BME280;61141;46.204;19.774;2023-05-09T12:21:20;100885.94;;;20.65;44.69
72961;BME280;61141;46.204;19.774;2023-05-09T12:24:24;100888.44;;;21.02;43.97
72961;BME280;61141;46.204;19.774;2023-05-09T12:27:30;100879.41;;;20.02;44.33
72961;BME280;61141;46.204;19.774;2023-05-09T12:30:34;100871.13;;;19.37;45.52
72961;BME280;61141;46.204;19.774;2023-05-09T12:33:38;100864.47;;;18.57;47.96
72961;BME280;61141;46.204;19.774;2023-05-09T12:36:45;100864.25;;;18.78;47.81
72961;BME280;61141;46.204;19.774;2023-05-09T12:40:10;100850.22;;;18.92;47.89
72961;BME280;61141;46.204;19.774;2023-05-09T12:43:17;100845.00;;;19.31;47.04
72961;BME280;61141;46.204;19.774;2023-05-09T12:46:20;100844.25;;;19.88;45.93
72961;BME280;61141;46.204;19.774;2023-05-09T12:49:24;100842.25;;;20.62;44.52
72961;BME280;61141;46.204;19.774;2023-05-09T12:52:34;100836.22;;;20.86;44.22
72961;BME280;61141;46.204;19.774;2023-05-09T12:55:48;100833.25;;;20.04;45.20
72961;BME280;61141;46.204;19.774;2023-05-09T12:58:53;100832.50;;;20.50;44.50
72961;BME280;61141;46.204;19.774;2023-05-09T13:01:58;100832.09;;;20.52;43.89
72961;BME280;61141;46.204;19.774;2023-05-09T13:05:12;100823.44;;;20.46;42.85
72961;BME280;61141;46.204;19.774;2023-05-09T13:08:20;100824.19;;;20.27;43.57
72961;BME280;61141;46.204;19.774;2023-05-09T13:11:22;100827.00;;;20.23;44.17
72961;BME280;61141;46.204;19.774;2023-05-09T13:14:26;100817.97;;;20.16;44.59
72961;BME280;61141;46.204;19.774;2023-05-09T13:17:29;100815.84;;;20.00;44.88
72961;BME280;61141;46.204;19.774;2023-05-09T13:20:32;100811.09;;;20.24;44.24
72961;BME280;61141;46.204;19.774;2023-05-09T13:23:34;100812.00;;;20.40;42.86
72961;BME280;61141;46.204;19.774;2023-05-09T13:26:38;100807.88;;;21.11;41.45
72961;BME280;61141;46.204;19.774;2023-05-09T13:29:40;100809.78;;;20.75;40.39
72961;BME280;61141;46.204;19.774;2023-05-09T13:32:43;100812.47;;;20.35;41.75
72961;BME280;61141;46.204;19.774;2023-05-09T13:35:46;100797.19;;;20.67;41.75
72961;BME280;61141;46.204;19.774;2023-05-09T13:38:50;100792.75;;;21.12;39.52
72961;BME280;61141;46.204;19.774;2023-05-09T13:41:53;100791.09;;;21.15;40.02
72961;BME280;61141;46.204;19.774;2023-05-09T13:44:57;100796.09;;;21.75;39.77
72961;BME280;61141;46.204;19.774;2023-05-09T13:47:59;100784.28;;;22.19;39.09
72961;BME280;61141;46.204;19.774;2023-05-09T13:51:02;100785.75;;;22.08;38.50
72961;BME280;61141;46.204;19.774;2023-05-09T13:54:07;100786.19;;;22.22;38.41
72961;BME280;61141;46.204;19.774;2023-05-09T13:57:14;100772.87;;;22.59;38.29
72961;BME280;61141;46.204;19.774;2023-05-09T14:00:17;100780.09;;;22.72;37.41
72961;BME280;61141;46.204;19.774;2023-05-09T14:03:20;100773.28;;;22.57;36.71
72961;BME280;61141;46.204;19.774;2023-05-09T14:06:23;100755.41;;;21.78;38.42
72961;BME280;61141;46.204;19.774;2023-05-09T14:09:26;100763.53;;;21.36;39.49
72961;BME280;61141;46.204;19.774;2023-05-09T14:12:30;100762.44;;;21.14;39.10
72961;BME280;61141;46.204;19.774;2023-05-09T14:15:33;100757.12;;;21.00;39.55
72961;BME280;61141;46.204;19.774;2023-05-09T14:18:36;100748.50;;;20.75;39.73
72961;BME280;61141;46.204;19.774;2023-05-09T14:21:40;100749.16;;;20.63;38.97
72961;BME280;61141;46.204;19.774;2023-05-09T14:24:44;100750.00;;;20.40;39.46
72961;BME280;61141;46.204;19.774;2023-05-09T14:27:47;100753.56;;;20.40;40.35
72961;BME280;61141;46.204;19.774;2023-05-09T14:30:50;100748.00;;;20.80;40.39
72961;BME280;61141;46.204;19.774;2023-05-09T14:33:54;100760.50;;;20.91;39.38
72961;BME280;61141;46.204;19.774;2023-05-09T14:36:57;100749.13;;;20.82;38.39
72961;BME280;61141;46.204;19.774;2023-05-09T14:40:00;100740.72;;;20.46;38.31
72961;BME280;61141;46.204;19.774;2023-05-09T14:43:07;100745.31;;;20.57;38.29
72961;BME280;61141;46.204;19.774;2023-05-09T14:46:11;100743.72;;;20.56;38.86
72961;BME280;61141;46.204;19.774;2023-05-09T14:49:13;100745.50;;;20.23;39.34
72961;BME280;61141;46.204;19.774;2023-05-09T14:52:16;100744.59;;;19.83;38.71
72961;BME280;61141;46.204;19.774;2023-05-09T14:55:19;100745.87;;;20.02;38.88
72961;BME280;61141;46.204;19.774;2023-05-09T14:58:25;100747.75;;;20.55;38.68
72961;BME280;61141;46.204;19.774;2023-05-09T15:01:28;100731.16;;;20.87;37.52
72961;BME280;61141;46.204;19.774;2023-05-09T15:04:31;100727.25;;;21.56;36.85
72961;BME280;61141;46.204;19.774;2023-05-09T15:07:34;100739.97;;;22.05;36.38
72961;BME280;61141;46.204;19.774;2023-05-09T15:10:37;100728.03;;;21.73;36.60
72961;BME280;61141;46.204;19.774;2023-05-09T15:13:40;100737.88;;;21.93;36.29
72961;BME280;61141;46.204;19.774;2023-05-09T15:16:43;100738.13;;;21.50;36.35
72961;BME280;61141;46.204;19.774;2023-05-09T15:19:46;100732.75;;;21.24;37.02
72961;BME280;61141;46.204;19.774;2023-05-09T15:22:49;100742.37;;;20.83;37.73
72961;BME280;61141;46.204;19.774;2023-05-09T15:25:52;100732.19;;;20.57;38.53
72961;BME280;61141;46.204;19.774;2023-05-09T15:28:55;100726.94;;;20.39;38.75
72961;BME280;61141;46.204;19.774;2023-05-09T15:31:58;100725.69;;;20.21;38.49
72961;BME280;61141;46.204;19.774;2023-05-09T15:35:01;100718.81;;;19.82;39.22
72961;BME280;61141;46.204;19.774;2023-05-09T15:38:03;100730.81;;;19.76;39.36
72961;BME280;61141;46.204;19.774;2023-05-09T15:41:06;100727.69;;;19.74;39.55
72961;BME280;61141;46.204;19.774;2023-05-09T15:44:10;100721.50;;;19.63;39.47
72961;BME280;61141;46.204;19.774;2023-05-09T15:47:13;100720.66;;;19.66;39.32
72961;BME280;61141;46.204;19.774;2023-05-09T15:50:16;100713.59;;;19.84;38.96
72961;BME280;61141;46.204;19.774;2023-05-09T15:53:19;100717.06;;;19.69;40.00
72961;BME280;61141;46.204;19.774;2023-05-09T15:56:24;100710.88;;;19.58;39.32
72961;BME280;61141;46.204;19.774;2023-05-09T15:59:27;100710.38;;;19.36;39.97
72961;BME280;61141;46.204;19.774;2023-05-09T16:02:30;100704.87;;;19.32;40.56
72961;BME280;61141;46.204;19.774;2023-05-09T16:05:33;100711.81;;;19.48;39.62
72961;BME280;61141;46.204;19.774;2023-05-09T16:08:35;100706.69;;;19.46;39.65
72961;BME280;61141;46.204;19.774;2023-05-09T16:11:39;100705.25;;;19.34;39.15